createdAt,value
2022-10-09T00:02:10.883Z,19.40
2022-10-09T00:07:35.932Z,21.30
2022-10-09T00:12:59.496Z,23.35
2022-10-09T00:18:23.106Z,15.63
2022-10-09T00:23:48.408Z,16.88
2022-10-09T00:29:12.292Z,20.17
2022-10-09T00:34:35.857Z,14.93
2022-10-09T00:40:00.758Z,18.20
2022-10-09T00:45:24.659Z,21.13
2022-10-09T00:50:52.363Z,19.00
2022-10-09T00:56:17.341Z,16.10
2022-10-09T01:01:42.234Z,21.95
2022-10-09T01:07:20.001Z,21.63
2022-10-09T01:12:51.485Z,26.67
2022-10-09T01:18:22.791Z,25.42
2022-10-09T01:24:02.114Z,29.30
2022-10-09T01:29:33.053Z,29.45
2022-10-09T01:34:58.164Z,37.10
2022-10-09T01:40:22.921Z,30.23
2022-10-09T01:45:50.868Z,38.08
2022-10-09T01:51:16.479Z,46.40
2022-10-09T01:56:40.655Z,49.88
2022-10-09T02:02:06.997Z,52.78
2022-10-09T02:07:32.439Z,56.83
2022-10-09T02:13:00.105Z,52.72
2022-10-09T02:18:32.579Z,48.53
2022-10-09T02:23:58.530Z,48.20
2022-10-09T02:29:22.506Z,55.15
2022-10-09T02:34:47.620Z,50.42
2022-10-09T02:40:12.288Z,77.80
2022-10-09T02:45:35.860Z,80.38
2022-10-09T02:51:01.367Z,85.13
2022-10-09T02:56:25.150Z,90.18
2022-10-09T03:01:48.877Z,75.22
2022-10-09T03:07:13.890Z,72.18
2022-10-09T03:12:37.452Z,66.70
2022-10-09T03:18:01.203Z,87.60
2022-10-09T03:23:26.934Z,113.05
2022-10-09T03:28:52.044Z,104.63
2022-10-09T03:34:15.941Z,87.88
2022-10-09T03:39:40.842Z,77.78
2022-10-09T03:45:06.320Z,69.28
2022-10-09T03:50:29.850Z,77.80
2022-10-09T03:55:54.918Z,75.57
2022-10-09T04:01:18.582Z,87.53
2022-10-09T04:06:42.231Z,64.90
2022-10-09T04:12:07.391Z,75.63
2022-10-09T04:17:30.961Z,62.92
2022-10-09T04:22:54.558Z,59.03
2022-10-09T04:28:19.540Z,52.72
2022-10-09T04:33:43.208Z,57.50
2022-10-09T04:39:07.097Z,59.15
2022-10-09T04:44:32.031Z,64.22
2022-10-09T04:49:55.554Z,70.22
2022-10-09T04:55:19.198Z,66.63
2022-10-09T05:00:45.635Z,72.72
2022-10-09T05:06:11.395Z,64.43
2022-10-09T05:11:37.223Z,64.63
2022-10-09T05:17:14.624Z,65.32
2022-10-09T05:22:38.855Z,55.72
2022-10-09T05:28:02.610Z,59.95
2022-10-09T05:33:29.101Z,50.40
2022-10-09T05:38:52.676Z,54.80
2022-10-09T05:44:16.339Z,50.25
2022-10-09T05:49:41.250Z,44.05
2022-10-09T05:55:05.250Z,47.50
2022-10-09T06:00:28.924Z,44.80
2022-10-09T06:05:54.014Z,41.30
2022-10-09T06:11:19.897Z,39.00
2022-10-09T06:16:45.612Z,47.50
2022-10-09T06:22:10.655Z,44.75
2022-10-09T06:27:34.227Z,45.30
2022-10-09T06:32:57.824Z,38.13
2022-10-09T06:38:22.830Z,37.13
2022-10-09T06:43:50.842Z,31.98
2022-10-09T06:49:14.485Z,32.05
2022-10-09T06:54:39.488Z,29.33
2022-10-09T07:00:03.129Z,31.95
2022-10-09T07:05:26.707Z,22.60
2022-10-09T07:10:51.698Z,17.52
2022-10-09T07:16:20.348Z,12.60
2022-10-09T07:21:48.955Z,14.50
2022-10-09T07:27:13.898Z,18.38
2022-10-09T07:32:37.536Z,20.00
2022-10-09T07:38:01.193Z,22.23
2022-10-09T07:43:26.128Z,19.15
2022-10-09T07:48:50.867Z,22.02
2022-10-09T07:54:14.464Z,13.50
2022-10-09T07:59:39.440Z,15.50
2022-10-09T08:05:03.066Z,17.70
2022-10-09T08:10:26.974Z,12.25
2022-10-09T08:15:52.035Z,12.80
2022-10-09T08:21:17.834Z,15.68
2022-10-09T08:26:45.416Z,20.00
2022-10-09T08:32:10.845Z,12.45
2022-10-09T08:37:34.551Z,8.80
2022-10-09T08:43:04.500Z,10.60
2022-10-09T08:48:32.091Z,9.73
2022-10-09T08:54:02.760Z,7.85
2022-10-09T08:59:26.902Z,8.32
2022-10-09T09:05:08.885Z,11.65
2022-10-09T09:10:41.738Z,8.02
2022-10-09T09:16:12.855Z,7.15
2022-10-09T09:21:46.313Z,8.50
2022-10-09T09:27:13.877Z,5.40
2022-10-09T09:32:39.992Z,8.13
2022-10-09T09:38:05.025Z,7.25
2022-10-09T09:43:28.661Z,12.38
2022-10-09T09:48:53.684Z,8.55
2022-10-09T09:54:22.091Z,6.78
2022-10-09T09:59:45.700Z,10.15
2022-10-09T10:05:18.259Z,5.85
2022-10-09T10:10:47.922Z,13.02
2022-10-09T10:16:22.885Z,8.33
2022-10-09T10:21:49.006Z,6.22
2022-10-09T10:27:23.314Z,7.75
2022-10-09T10:32:54.411Z,9.15
2022-10-09T10:38:23.775Z,11.13
2022-10-09T10:43:52.742Z,10.50
2022-10-09T10:49:20.314Z,8.93
2022-10-09T10:54:52.677Z,7.07
2022-10-09T11:00:18.344Z,5.72
2022-10-09T11:05:50.589Z,7.78
2022-10-09T11:11:23.675Z,6.80
2022-10-09T11:17:01.117Z,5.63
2022-10-09T11:22:37.890Z,6.45
2022-10-09T11:28:06.190Z,4.50
2022-10-09T11:33:37.927Z,4.07
2022-10-09T11:39:05.301Z,5.10
2022-10-09T11:44:38.831Z,5.03
2022-10-09T11:50:27.777Z,6.07
2022-10-09T11:56:03.111Z,5.80
2022-10-09T12:01:32.575Z,9.15
2022-10-09T12:06:59.988Z,4.00
2022-10-09T12:12:24.803Z,6.20
2022-10-09T12:17:49.872Z,4.55
2022-10-09T12:23:33.484Z,4.70
2022-10-09T12:29:01.326Z,8.40
2022-10-09T12:34:29.003Z,6.15
2022-10-09T12:39:53.945Z,4.05
2022-10-09T12:45:19.734Z,9.73
2022-10-09T12:50:43.406Z,6.68
2022-10-09T12:56:13.496Z,10.60
2022-10-09T13:07:04.074Z,9.63
2022-10-09T13:12:30.070Z,7.20
2022-10-09T13:17:53.701Z,7.50
2022-10-09T13:23:28.619Z,11.52
2022-10-09T13:28:54.079Z,10.38
2022-10-09T13:34:18.892Z,14.82
2022-10-09T13:39:42.512Z,11.82
2022-10-09T13:45:08.978Z,10.00
2022-10-09T13:50:32.610Z,9.00
2022-10-09T13:56:00.726Z,11.73
2022-10-09T14:01:26.319Z,8.57
2022-10-09T14:06:51.618Z,14.18
2022-10-09T14:12:16.087Z,10.38
2022-10-09T14:17:41.031Z,13.75
2022-10-09T14:23:04.630Z,7.57
2022-10-09T14:28:28.294Z,8.90
2022-10-09T14:33:56.841Z,14.70
2022-10-09T14:39:20.574Z,10.80
2022-10-09T14:44:44.190Z,10.35
2022-10-09T14:50:10.309Z,11.27
2022-10-09T14:55:36.049Z,10.88
2022-10-09T15:01:00.016Z,12.60
2022-10-09T15:06:25.047Z,15.73
2022-10-09T15:11:48.637Z,9.25
2022-10-09T15:17:12.264Z,12.60
2022-10-09T15:22:37.254Z,9.13
2022-10-09T15:28:01.706Z,11.57
2022-10-09T15:33:25.749Z,12.82
2022-10-09T15:38:51.092Z,17.08
2022-10-09T15:44:17.018Z,17.65
2022-10-09T15:49:40.715Z,11.80
2022-10-09T15:55:06.531Z,13.60
2022-10-09T16:00:30.150Z,14.60
2022-10-09T16:05:54.972Z,16.45
2022-10-09T16:11:23.204Z,32.75
2022-10-09T16:16:51.465Z,13.75
2022-10-09T16:22:15.085Z,20.83
2022-10-09T16:27:40.205Z,14.55
2022-10-09T16:33:03.825Z,19.70
2022-10-09T16:38:27.439Z,15.05
2022-10-09T16:43:54.779Z,16.95
2022-10-09T16:49:21.403Z,22.27
2022-10-09T16:54:49.227Z,14.90
2022-10-09T17:00:19.210Z,22.67
2022-10-09T17:05:43.968Z,74.57
2022-10-09T17:11:08.890Z,23.95
2022-10-09T17:16:37.547Z,20.08
2022-10-09T17:22:01.851Z,16.23
2022-10-09T17:27:25.562Z,20.90
2022-10-09T17:32:50.831Z,18.90
2022-10-09T17:38:14.813Z,16.75
2022-10-09T17:43:38.920Z,16.45
2022-10-09T17:49:03.935Z,12.55
2022-10-09T17:54:27.547Z,14.23
2022-10-09T17:59:51.116Z,14.40
2022-10-09T18:05:16.445Z,17.20
2022-10-09T18:10:40.144Z,14.10
2022-10-09T18:16:06.582Z,16.45
2022-10-09T18:21:31.607Z,14.70
2022-10-09T18:26:55.277Z,15.75
2022-10-09T18:32:21.289Z,15.18
2022-10-09T18:37:46.434Z,17.92
2022-10-09T18:43:14.231Z,24.17
2022-10-09T18:48:40.637Z,18.45
2022-10-09T18:54:07.530Z,14.75
2022-10-09T18:59:31.544Z,18.35
2022-10-09T19:04:55.495Z,10.55
2022-10-09T19:10:20.523Z,10.15
2022-10-09T19:15:44.199Z,11.93
2022-10-09T19:21:07.910Z,10.95
2022-10-09T19:26:35.165Z,11.90
2022-10-09T19:31:58.750Z,10.07
2022-10-09T19:37:26.051Z,9.82
2022-10-09T19:42:53.982Z,10.97
2022-10-09T19:48:18.281Z,10.15
2022-10-09T19:53:42.351Z,7.70
2022-10-09T19:59:08.891Z,13.30
2022-10-09T20:04:32.555Z,7.53
2022-10-09T20:09:56.359Z,7.05
2022-10-09T20:15:22.458Z,11.05
2022-10-09T20:20:48.428Z,4.07
2022-10-09T20:26:14.613Z,9.07
2022-10-09T20:31:39.802Z,6.25
2022-10-09T20:37:03.411Z,5.50
2022-10-09T20:42:27.378Z,6.22
2022-10-09T20:47:52.339Z,6.22
2022-10-09T20:53:16.791Z,7.72
2022-10-09T20:58:40.482Z,8.77
2022-10-09T21:04:05.709Z,4.20
2022-10-09T21:09:33.122Z,3.58
2022-10-09T21:14:57.157Z,4.25
2022-10-09T21:20:22.107Z,3.75
2022-10-09T21:25:50.002Z,4.00
2022-10-09T21:31:16.314Z,8.52
2022-10-09T21:37:08.445Z,3.08
2022-10-09T21:42:27.150Z,7.03
2022-10-09T21:47:50.735Z,3.90
2022-10-09T21:53:15.690Z,7.05
2022-10-09T21:58:40.334Z,7.05
2022-10-09T22:04:04.086Z,3.47
2022-10-09T22:09:29.149Z,2.30
2022-10-09T22:14:52.727Z,9.57
2022-10-09T22:20:16.347Z,4.07
2022-10-09T22:25:42.100Z,3.00
2022-10-09T22:31:10.556Z,5.45
2022-10-09T22:36:35.208Z,7.32
2022-10-09T22:42:00.152Z,4.85
2022-10-09T22:47:23.694Z,3.30
2022-10-09T22:52:47.428Z,4.40
2022-10-09T22:58:12.507Z,2.58
2022-10-09T23:03:36.080Z,2.60
2022-10-09T23:09:00.250Z,5.13
2022-10-09T23:14:26.084Z,2.60
2022-10-09T23:19:49.648Z,5.72
2022-10-09T23:25:13.204Z,9.30
2022-10-09T23:30:38.196Z,3.92
2022-10-09T23:36:03.081Z,2.88
2022-10-09T23:41:28.402Z,7.30
2022-10-09T23:46:53.363Z,5.10
2022-10-09T23:52:16.907Z,1.83
2022-10-09T23:57:40.493Z,3.50
